Tiempo atmosférico en la estación meteorológica de Benamejí, Córdoba (465 m.)



Fecha
DESCASC
Temp. máxima en grados centígrados (hora)
DESCASC
Temp. mínima en grados centígrados (hora)
DESCASC
Temp. media en grados centígrados
DESCASC
Racha de viento máxima en m/sg (hora)
DESCASC
Velocidad máxima media en intervalos de 10 minutos(hora)
DESCASC
Precipitaciones diarias en mm
DESCASC
Precipitaciones de 00:00 a 06:00 en mm
DESCASC
Precipitaciones de 06:00 a 12:00 en mm
DESCASC
Precipitaciones de 12:00 a 18:00 en mm
DESCASC
Precipitaciones de 18:00 a 24:00 en mm
DESCASC
21-05-2018 -- (--) -- (--) -- -- (--) -- (--) -- 0 -- 10.4 0
05-05-2018 -- (--) -- (--) -- -- (--) -- (--) -- -- 0 0 0
13-05-2018 20.6 (15:30) 6.9 (00:00) 13.8 8.61 (20:00) 5 (18:20) 0 0 0 0 0
27-05-2018 23.2 (18:10) 13.8 (00:00) 18.5 8.89 (21:40) 6.11 (21:40) 0 0 0 0 0
26-05-2018 24.5 (17:20) 12.4 (00:00) 18.4 7.5 (14:10) 4.72 (18:20) 0 0 0 0 0
24-05-2018 25.6 (15:30) 13.9 (00:00) 19.8 10.28 (15:40) 6.11 (15:40) 0 0 0 0 0
23-05-2018 25.5 (16:50) 13.8 (00:00) 19.7 5.28 (23:50) 4.44 (22:30) 0 0 0 0 0
22-05-2018 24.7 (18:00) 12.3 (00:00) 18.5 6.11 (15:20) 3.61 (14:30) 0 0 0 0 0
17-05-2018 26.4 (16:00) 10.9 (00:00) 18.6 13.33 (19:40) 9.72 (20:10) 0 0 0 0 0
16-05-2018 25.9 (17:00) 11.4 (00:00) 18.6 10.83 (17:50) 8.33 (20:20) 0 0 0 0 0
15-05-2018 25.7 (16:40) 11.5 (00:00) 18.6 8.89 (19:50) 6.67 (19:40) 0 0 0 0 0
14-05-2018 24 (16:30) 9 (00:00) 16.5 8.61 (17:00) 5.28 (18:30) 0 0 0 0 0
28-04-2018 18.6 (17:20) 10.4 (00:00) 14.5 10.83 (19:00) 7.5 (16:40) 0 0 0 0 0
12-05-2018 21.1 (18:00) 12.6 (00:00) 16.9 11.11 (20:20) 7.22 (19:10) 0 0 0 0 0
11-05-2018 25.3 (17:50) 11.1 (07:00) 18.2 7.78 (19:00) 4.72 (19:50) 0 0 0 0 0
10-05-2018 22.8 (18:20) 13.5 (00:00) 18.1 8.06 (17:30) 5 (17:00) 0 0 0 0 0
09-05-2018 19.2 (16:40) 13.3 (00:00) 16.3 7.22 (17:20) 4.72 (17:30) 0 0 0 0 0
08-05-2018 25.4 (17:20) 12.8 (00:00) 19.1 10.28 (19:20) 6.11 (19:10) 0 0 0 0 0
07-05-2018 25.2 (17:40) 11.4 (00:00) 18.3 9.17 (20:10) 6.11 (21:40) 0 0 0 0 0
06-05-2018 23.5 (17:00) 13 (00:00) 18.3 8.89 (16:40) 5.56 (15:40) 0 0 0 0 0
04-05-2018 20.6 (13:50) 12 (00:00) 16.3 11.11 (15:10) 8.33 (15:10) 0 0 0 0 0
03-05-2018 21.8 (18:50) 7.8 (00:00) 14.8 8.89 (17:50) 4.72 (17:50) 0 0 0 0 0
02-05-2018 17.8 (17:40) 5.4 (00:00) 11.6 7.22 (18:50) 4.44 (18:50) 0 0 0 0 0
30-04-2018 15.4 (15:00) 7.2 (00:00) 11.3 9.17 (14:20) 4.72 (17:00) 0 0 0 0 0
29-04-2018 16.3 (16:20) 7.1 (00:00) 11.7 13.61 (14:40) 9.17 (16:00) 0.6 0.6 0 0 0
18-05-2018 23.7 (13:50) 12.3 (00:00) 18 10.83 (15:30) 7.22 (15:30) 2.8 0 0 2.8 0
19-05-2018 23.3 (14:00) 13.7 (00:00) 18.5 12.78 (15:10) 8.61 (16:50) 7.4 0 0 6.4 1
25-05-2018 21.4 (17:00) 12.1 (00:00) 16.8 6.67 (13:20) 4.17 (13:20) 7.8 7.6 0.2 0 0
20-05-2018 21.8 (14:50) 12.1 (00:00) 16.9 10 (16:10) 7.5 (16:20) 8.8 0 0 0.6 8.2
01-05-2018 13.2 (12:00) 4.3 (15:50) 8.8 12.78 (15:50) 7.78 (15:50) 22.4 0 0 22.2 0.2

Gráficas

Temp. máximas Temp. mínimas Temp. medias Precipitaciones Rachas de viento máximas Velocidades máximas media en intervalos de 10 minutos

Datos horarios

Fecha y hora oficial Temperatura (ºC) Velocidad del viento (km/h) Dirección del viento Racha (km/h) Dirección de racha Precipitación (mm) Presión (hPa) Tendencia (hPa) Humedad (%)
2018-05-27 23:00:00 17 15 Oeste 24 Sudoeste 0 -- -- 60
2018-05-27 22:00:00 17.7 15 Oeste 32 Oeste 0 -- -- 57
2018-05-27 21:00:00 19.9 13 Oeste 29 Oeste 0 -- -- 50
2018-05-27 20:00:00 20.4 13 Oeste 27 Oeste 0 -- -- 47
2018-05-27 19:00:00 21 15 Oeste 27 Oeste 0 -- -- 45
2018-05-27 18:00:00 23.1 15 Oeste 29 Oeste 0 -- -- 45
2018-05-27 17:00:00 21.8 17 Oeste 28 Noroeste 0 -- -- 47
2018-05-27 16:00:00 20 13 Noroeste 27 Oeste 0 -- -- 57
2018-05-27 15:00:00 21.6 8 Noroeste 22 Noroeste 0 -- -- 52
2018-05-27 14:00:00 20.6 9 Noroeste 19 Noroeste 0 -- -- 57
2018-05-27 13:00:00 19.9 8 Noroeste 15 Noroeste 0 -- -- 60
2018-05-27 12:00:00 18.8 4 Noroeste 12 Noroeste 0 -- -- 64
2018-05-27 11:00:00 16.6 4 Oeste 10 Noroeste 0 -- -- 72
2018-05-27 10:00:00 15.1 4 Nordeste 9 Norte 0 -- -- 86
2018-05-27 09:00:00 14.4 6 Norte 10 Norte 0 -- -- 90
2018-05-27 08:00:00 14 6 Norte 10 Nordeste 0 -- -- 90
2018-05-27 07:00:00 13.8 6 Nordeste 10 Nordeste 0 -- -- 90
2018-05-27 06:00:00 14.2 5 Nordeste 10 Norte 0 -- -- 86
2018-05-27 05:00:00 14.4 4 Norte 7 Nordeste 0 -- -- 82
2018-05-27 04:00:00 14.5 6 Nordeste 8 Nordeste 0 -- -- 81
2018-05-27 03:00:00 15.3 3 Sudoeste 7 Sur 0 -- -- 70
2018-05-27 02:00:00 16.1 3 Sudeste 6 Sur 0 -- -- 66
2018-05-27 01:00:00 16.6 3 Norte 8 Noroeste 0 -- -- 64
2018-05-27 00:00:00 17.2 3 Noroeste 14 Noroeste 0 -- -- 61
2018-05-26 23:00:00 18 10 Oeste 18 Oeste 0 -- -- 57
2018-05-26 22:00:00 19.2 13 Oeste 19 Oeste 0 -- -- 51
2018-05-26 21:00:00 21.2 13 Oeste 25 Noroeste 0 -- -- 43
2018-05-26 20:00:00 22.9 15 Noroeste 24 Noroeste 0 -- -- 37
2018-05-26 19:00:00 24.2 14 Noroeste 26 Oeste 0 -- -- 33
2018-05-26 18:00:00 24.3 14 Oeste 22 Noroeste 0 -- -- 33
2018-05-26 17:00:00 24 11 Oeste 22 Sudoeste 0 -- -- 34
2018-05-26 16:00:00 22.8 6 Sudoeste 21 Oeste 0 -- -- 35
2018-05-26 15:00:00 22.6 7 Sur 27 Oeste 0 -- -- 36
2018-05-26 14:00:00 22.2 5 Noroeste 18 Sur 0 -- -- 39
2018-05-26 13:00:00 20.8 5 Sudoeste 16 Sudeste 0 -- -- 43
2018-05-26 12:00:00 19.3 5 Oeste 10 Norte 0 -- -- 51
2018-05-26 11:00:00 17.6 4 Noroeste 13 Norte 0 -- -- 62
2018-05-26 10:00:00 16.4 6 Norte 11 Norte 0 -- -- 70
2018-05-26 09:00:00 14.9 3 Nordeste 7 Nordeste 0 -- -- 79
2018-05-26 08:00:00 13.4 2 Este 5 Este 0 -- -- 88
2018-05-26 07:00:00 12.6 5 Sudeste 8 Sudeste 0 -- -- 90
2018-05-26 06:00:00 12.4 6 Sudeste 7 Sudeste 0 -- -- 89
2018-05-26 05:00:00 12.6 4 Nordeste 9 Noroeste 0 -- -- 89
2018-05-26 04:00:00 13 4 Noroeste 6 Noroeste 0 -- -- 83
2018-05-26 03:00:00 13.3 4 Nordeste 10 Nordeste 0 -- -- 79
2018-05-26 02:00:00 13.6 7 Nordeste 13 Norte 0 -- -- 75
2018-05-26 01:00:00 14.8 7 Noroeste 19 Noroeste 0 -- -- 65
2018-05-26 00:00:00 15.9 10 Noroeste 18 Noroeste 0 -- -- 61
2018-05-25 23:00:00 16.9 9 Oeste 19 Noroeste 0 -- -- 59
2018-05-25 22:00:00 17.3 4 Norte 10 Noroeste 0 -- -- 60
2018-05-25 21:00:00 17.9 7 Noroeste 18 Oeste 0 -- -- 56
2018-05-25 20:00:00 18.4 12 Oeste 19 Oeste 0 -- -- 53
2018-05-25 19:00:00 19.5 8 Noroeste 18 Oeste 0 -- -- 48
2018-05-25 18:00:00 20.1 9 Oeste 23 Sudoeste 0 -- -- 41
2018-05-25 17:00:00 21.4 12 Sudoeste 24 Sudoeste 0 -- -- 37
2018-05-25 16:00:00 21.3 11 Sudoeste 21 Sur 0 -- -- 42
2018-05-25 15:00:00 19.6 9 Sur 16 Sur 0 -- -- 54
2018-05-25 14:00:00 19.1 9 Oeste 24 Oeste 0 -- -- 55
2018-05-25 13:00:00 18.1 8 Oeste 15 Sudoeste 0 -- -- 62
2018-05-25 12:00:00 18 3 Norte 10 Sudoeste 0.2 -- -- 61
2018-05-25 11:00:00 17.3 5 Sur 10 Sudeste 0 -- -- 68
2018-05-25 10:00:00 15.9 5 Sur 11 Este 0 -- -- 74
2018-05-25 09:00:00 14.5 3 Sudeste 5 Este 0 -- -- 83
2018-05-25 08:00:00 12.5 0 Calma 2 Oeste 0 -- -- 92
2018-05-25 07:00:00 12.2 2 Norte 6 Noroeste 0 -- -- 92
2018-05-25 06:00:00 12.7 4 Oeste 5 Noroeste 0 -- -- 92
2018-05-25 05:00:00 12.6 3 Norte 10 Nordeste 0 -- -- 92
2018-05-25 04:00:00 12.9 4 Nordeste 14 Nordeste 0 -- -- 92
2018-05-25 03:00:00 12.8 5 Nordeste 9 Nordeste 2.2 -- -- 91
2018-05-25 02:00:00 13.5 5 Nordeste 9 Nordeste 5.4 -- -- 86
2018-05-25 01:00:00 14.1 0 Calma 6 Noroeste 0 -- -- 70
2018-05-25 00:00:00 13.9 6 Noroeste 9 Noroeste 0 -- -- 70
2018-05-24 23:00:00 14.4 5 Nordeste 11 Noroeste 0 -- -- 66
2018-05-24 22:00:00 14.9 6 Noroeste 21 Oeste 0 -- -- 61
2018-05-24 21:00:00 16.7 15 Noroeste 28 Noroeste 0 -- -- 58
2018-05-24 20:00:00 19 19 Noroeste 32 Noroeste 0 -- -- 51
2018-05-24 19:00:00 19.6 19 Noroeste 32 Noroeste 0 -- -- 52
2018-05-24 18:00:00 22.9 20 Noroeste 32 Oeste 0 -- -- 45
2018-05-24 17:00:00 23 14 Noroeste 30 Noroeste 0 -- -- 50
2018-05-24 16:00:00 24.4 13 Sudoeste 37 Sur 0 -- -- 41
2018-05-24 15:00:00 25.1 20 Sur 31 Sur 0 -- -- 33
2018-05-24 14:00:00 23.2 10 Oeste 22 Oeste 0 -- -- 40
2018-05-24 13:00:00 22.6 6 Sudeste 17 Oeste 0 -- -- 43
2018-05-24 12:00:00 21.5 4 Noroeste 13 Oeste 0 -- -- 47
2018-05-24 11:00:00 20.1 4 Noroeste 9 Oeste 0 -- -- 51
2018-05-24 10:00:00 19.1 4 Nordeste 8 Este 0 -- -- 54
2018-05-24 09:00:00 18.1 3 Nordeste 8 Este 0 -- -- 61
2018-05-24 08:00:00 15.5 6 Este 10 Este 0 -- -- 67
2018-05-24 07:00:00 14.9 6 Este 10 Nordeste 0 -- -- 64
2018-05-24 06:00:00 15.4 5 Este 12 Nordeste 0 -- -- 60
2018-05-24 05:00:00 15.4 6 Nordeste 9 Nordeste 0 -- -- 58
2018-05-24 04:00:00 15.5 4 Norte 7 Sur 0 -- -- 58
2018-05-24 03:00:00 16.4 5 Sur 13 Sur 0 -- -- 46
2018-05-24 02:00:00 16.7 3 Sur 16 Sur 0 -- -- 41
2018-05-24 01:00:00 16.9 5 Sur 21 Sur 0 -- -- 51
2018-05-24 00:00:00 17.5 14 Sur 19 Sur 0 -- -- 51
2018-05-23 23:00:00 18.3 14 Sur 19 Sur 0 -- -- 48
2018-05-23 22:00:00 19.8 13 Sur 17 Sur 0 -- -- 43
2018-05-23 21:00:00 22 9 Sudoeste 14 Sudoeste 0 -- -- 40
2018-05-23 20:00:00 23.7 7 Oeste 15 Noroeste 0 -- -- 38
2018-05-23 19:00:00 25 6 Noroeste 10 Noroeste 0 -- -- 34
2018-05-23 18:00:00 25.1 6 Noroeste 13 Nordeste 0 -- -- 32
2018-05-23 17:00:00 25.2 6 Norte 12 Noroeste 0 -- -- 29
2018-05-23 16:00:00 24.8 6 Oeste 14 Sur 0 -- -- 30
2018-05-23 15:00:00 23.5 6 Sur 17 Sur 0 -- -- 34
2018-05-23 14:00:00 22.7 4 Sur 12 Este 0 -- -- 42
2018-05-23 13:00:00 20.7 4 Norte 13 Nordeste 0 -- -- 54
2018-05-23 12:00:00 19.6 8 Nordeste 12 Nordeste 0 -- -- 63
2018-05-23 11:00:00 20.2 3 Nordeste 9 Nordeste 0 -- -- 54
2018-05-23 10:00:00 18.1 5 Nordeste 14 Nordeste 0 -- -- 65
2018-05-23 09:00:00 16.4 6 Nordeste 9 Nordeste 0 -- -- 68
2018-05-23 08:00:00 14.5 5 Este 9 Este 0 -- -- 70
2018-05-23 07:00:00 13.9 4 Este 6 Nordeste 0 -- -- 73
2018-05-23 06:00:00 14.3 5 Nordeste 9 Nordeste 0 -- -- 73
2018-05-23 05:00:00 14.9 5 Este 12 Este 0 -- -- 68
2018-05-23 04:00:00 14.9 4 Sudeste 13 Sur 0 -- -- 69
2018-05-23 03:00:00 15.2 9 Sur 14 Sur 0 -- -- 66
2018-05-23 02:00:00 15.8 10 Sur 15 Sur 0 -- -- 65
2018-05-23 01:00:00 17.5 5 Sur 8 Sur 0 -- -- 54
2018-05-23 00:00:00 18 4 Sudoeste 9 Sur 0 -- -- 53
2018-05-22 23:00:00 19.7 2 Este 8 Sudeste 0 -- -- 41
2018-05-22 22:00:00 20.5 4 Oeste 8 Noroeste 0 -- -- 40
2018-05-22 21:00:00 22.3 7 Noroeste 10 Noroeste 0 -- -- 39
2018-05-22 20:00:00 23.9 9 Oeste 16 Noroeste 0 -- -- 30
2018-05-22 19:00:00 24.6 7 Noroeste 16 Noroeste 0 -- -- 29
2018-05-22 18:00:00 24.7 11 Oeste 18 Oeste 0 -- -- 31
2018-05-22 17:00:00 24.2 10 Oeste 20 Sudoeste 0 -- -- 33
2018-05-22 16:00:00 23.4 11 Noroeste 22 Oeste 0 -- -- 38
2018-05-22 15:00:00 22.3 9 Noroeste 21 Oeste 0 -- -- 56
2018-05-22 14:00:00 21.7 9 Oeste 18 Oeste 0 -- -- 60
2018-05-22 13:00:00 20.5 6 Oeste 13 Norte 0 -- -- 59
2018-05-22 12:00:00 18.7 6 Norte 12 Nordeste 0 -- -- 74
2018-05-22 11:00:00 16.4 3 Norte 8 Nordeste 0 -- -- 82
2018-05-22 10:00:00 14.2 4 Nordeste 11 Nordeste 0 -- -- 91
2018-05-22 09:00:00 13 7 Nordeste 10 Nordeste 0 -- -- 96
2018-05-22 08:00:00 13 6 Nordeste 9 Norte 0 -- -- 97
2018-05-22 07:00:00 12.8 3 Norte 8 Nordeste 0 -- -- 97
2018-05-22 06:00:00 12.8 4 Norte 9 Norte 0 -- -- 96
2018-05-22 05:00:00 12.7 3 Norte 10 Nordeste 0 -- -- 96
2018-05-22 04:00:00 12.3 6 Norte 11 Norte 0 -- -- 95
2018-05-22 03:00:00 12.8 2 Oeste 6 Nordeste 0 -- -- 90
2018-05-22 02:00:00 13.5 5 Este 9 Este 0 -- -- 88
2018-05-22 01:00:00 13.7 7 Sudeste 9 Sur 0 -- -- 89
2018-05-22 00:00:00 14.2 3 Este 6 Sur 0 -- -- 90
2018-05-21 23:00:00 14.3 4 Sur 8 Sur 0 -- -- 90
2018-05-21 22:00:00 14.9 7 Noroeste 14 Sudoeste 0 -- -- 87
2018-05-21 21:00:00 15.8 3 Sudoeste 15 Sur 0 -- -- 84
2018-05-21 20:00:00 15.6 12 Sur 23 Sudoeste 0 -- -- 79
2018-05-21 19:00:00 15.9 17 Sudoeste 23 Sur 0 -- -- 74
2018-05-21 18:00:00 16.6 9 Sudeste 15 Este 0.2 -- -- 74
2018-05-21 17:00:00 14.5 9 Este 20 Este 0.2 -- -- 90
2018-05-21 16:00:00 13 6 Este 28 Sudeste 9.6 -- -- 86
2018-05-21 15:00:00 14.2 29 Sudeste 51 Sur 0 -- -- 77
2018-05-21 14:00:00 18.2 12 Noroeste 23 Noroeste 0.4 -- -- 83
2018-05-21 13:00:00 19.4 10 Oeste 20 Oeste 0 -- -- 61
2018-05-21 12:00:00 18.4 8 Sur 13 Sudoeste 0 -- -- 69
2018-05-21 11:00:00 16.9 4 Sur 8 Sudeste 0 -- -- 80
2018-05-21 10:00:00 -- -- -- -- -- -- -- -- --
2018-05-21 09:00:00 13.2 0 Calma 6 Sudeste 0 -- -- 94
2018-05-21 08:00:00 12.3 4 Este 9 Este 0 -- -- 91
2018-05-21 07:00:00 12.2 4 Este 6 Este 0 -- -- 93
2018-05-21 06:00:00 12 6 Sur 10 Sudeste 0 -- -- 94
2018-05-21 05:00:00 11.9 6 Sur 12 Sur 0 -- -- 94
2018-05-21 04:00:00 12.4 7 Sudeste 10 Sur 0 -- -- 94
2018-05-21 03:00:00 12.8 5 Sur 8 Sur 0 -- -- 93
2018-05-21 02:00:00 13.1 3 Sur 6 Sur 0 -- -- 94
2018-05-21 01:00:00 13.5 4 Este 10 Nordeste 0 -- -- 92
2018-05-21 00:00:00 13.3 0 Calma 13 Sudeste 0 -- -- 94
2018-05-20 23:00:00 13.4 11 Este 18 Sudeste 0 -- -- 94
2018-05-20 22:00:00 13.6 10 Este 15 Este 0 -- -- 95
2018-05-20 21:00:00 13.8 3 Oeste 13 Oeste 1.2 -- -- 94
2018-05-20 20:00:00 13.4 3 Este 18 Norte 5.6 -- -- 95
2018-05-20 19:00:00 14.1 0 Calma 13 Este 1.4 -- -- 92
2018-05-20 18:00:00 14.8 8 Este 28 Sur 0.6 -- -- 85
2018-05-20 17:00:00 16.1 20 Sudoeste 36 Sur 0 -- -- 74
2018-05-20 16:00:00 20.2 15 Sudoeste 30 Sudoeste 0 -- -- 60
2018-05-20 15:00:00 21.6 8 Noroeste 17 Oeste 0 -- -- 55
2018-05-20 14:00:00 20.5 12 Oeste 21 Oeste 0 -- -- 58
2018-05-20 13:00:00 19.7 8 Noroeste 14 Oeste 0 -- -- 63
2018-05-20 12:00:00 18.2 6 Sudoeste 14 Sudoeste 0 -- -- 69
2018-05-20 11:00:00 16.7 4 Oeste 9 Sudoeste 0 -- -- 75
2018-05-20 10:00:00 14.9 3 Nordeste 6 Nordeste 0 -- -- 86
2018-05-20 09:00:00 14.2 3 Sur 9 Este 0 -- -- 88
2018-05-20 08:00:00 12.2 7 Este 10 Este 0 -- -- 92
2018-05-20 07:00:00 12.1 6 Este 10 Este 0 -- -- 93
2018-05-20 06:00:00 12.3 3 Sudeste 8 Este 0 -- -- 91
2018-05-20 05:00:00 12.8 5 Sudeste 13 Sudeste 0 -- -- 90
2018-05-20 04:00:00 12.2 7 Sudeste 10 Sur 0 -- -- 91
2018-05-20 03:00:00 12.5 8 Sur 13 Sur 0 -- -- 88
2018-05-20 02:00:00 13.1 6 Sur 9 Sudeste 0 -- -- 88
2018-05-20 01:00:00 13.5 3 Sudeste 8 Sudeste 0 -- -- 87
2018-05-20 00:00:00 13.8 4 Este 7 Nordeste 0 -- -- 88
2018-05-19 23:00:00 14.3 2 Este 10 Nordeste 0 -- -- 84
2018-05-19 22:00:00 14.5 7 Nordeste 18 Sudoeste 0 -- -- 82
2018-05-19 21:00:00 14.6 15 Sudoeste 24 Sudoeste 1 -- -- 82
2018-05-19 20:00:00 16 6 Nordeste 15 Nordeste 0 -- -- 73
2018-05-19 19:00:00 17.1 4 Nordeste 16 Sur 0 -- -- 66
2018-05-19 18:00:00 16.4 12 Sur 35 Sur 0 -- -- 71
2018-05-19 17:00:00 14.3 30 Sur 41 Sur 0.4 -- -- 86
2018-05-19 16:00:00 13.9 11 Sur 46 Nordeste 5 -- -- 84
2018-05-19 15:00:00 16.6 15 Este 38 Nordeste 1 -- -- 65
2018-05-19 14:00:00 23.3 5 Noroeste 16 Norte 0 -- -- 35
2018-05-19 13:00:00 22.4 12 Norte 18 Norte 0 -- -- 38
2018-05-19 12:00:00 21.5 8 Este 15 Nordeste 0 -- -- 38
2018-05-19 11:00:00 20.1 6 Nordeste 10 Nordeste 0 -- -- 45
2018-05-19 10:00:00 18.9 3 Nordeste 8 Este 0 -- -- 55
2018-05-19 09:00:00 16.8 5 Este 7 Este 0 -- -- 64
2018-05-19 08:00:00 14.4 4 Este 14 Este 0 -- -- 74
2018-05-19 07:00:00 14.1 10 Sudeste 12 Este 0 -- -- 73
2018-05-19 06:00:00 14.8 3 Este 5 Sudeste 0 -- -- 66
2018-05-19 05:00:00 14.8 3 Nordeste 5 Norte 0 -- -- 67
2018-05-19 04:00:00 14.7 3 Sur 7 Sudeste 0 -- -- 68
2018-05-19 03:00:00 15 7 Sudeste 15 Sudeste 0 -- -- 65
2018-05-19 02:00:00 14.2 10 Sur 13 Sur 0 -- -- 66
2018-05-19 01:00:00 14.5 8 Sur 11 Sur 0 -- -- 63
2018-05-19 00:00:00 14.5 8 Sur 13 Este 0 -- -- 65
2018-05-18 23:00:00 15.8 11 Sudeste 15 Sudeste 0 -- -- 59
2018-05-18 22:00:00 16.4 12 Sudeste 19 Sudeste 0 -- -- 56
2018-05-18 21:00:00 17.8 13 Sur 27 Sur 0 -- -- 50
2018-05-18 20:00:00 18.9 19 Sur 30 Sur 0 -- -- 46
2018-05-18 19:00:00 18.9 13 Nordeste 19 Nordeste 0 -- -- 64
2018-05-18 18:00:00 18.2 8 Nordeste 20 Este 0.2 -- -- 75
2018-05-18 17:00:00 15.8 12 Este 28 Nordeste 2.4 -- -- 76
2018-05-18 16:00:00 17.8 14 Nordeste 39 Sudeste 0.2 -- -- 62
2018-05-18 15:00:00 22.2 11 Sudoeste 20 Sur 0 -- -- 36
2018-05-18 14:00:00 23.2 8 Oeste 16 Oeste 0 -- -- 32
2018-05-18 13:00:00 21.4 7 Sudoeste 16 Sudoeste 0 -- -- 35
2018-05-18 12:00:00 20.5 6 Oeste 15 Sur 0 -- -- 37
2018-05-18 11:00:00 19.9 8 Sur 15 Sur 0 -- -- 40
2018-05-18 10:00:00 17.4 2 Sur 4 Sudoeste 0 -- -- 57
2018-05-18 09:00:00 15.4 0 Calma 6 Nordeste 0 -- -- 66
2018-05-18 08:00:00 13.7 4 Este 9 Este 0 -- -- 71
2018-05-18 07:00:00 12.4 3 Sudeste 5 Sur 0 -- -- 77
2018-05-18 06:00:00 12.7 0 Calma 19 Sudeste 0 -- -- 77
2018-05-18 05:00:00 13.2 14 Sudeste 22 Sudeste 0 -- -- 76
2018-05-18 04:00:00 12.8 13 Sur 18 Sur 0 -- -- 81
2018-05-18 03:00:00 12.9 7 Sur 15 Sur 0 -- -- 77
2018-05-18 02:00:00 13.4 6 Sur 28 Sur 0 -- -- 73
2018-05-18 01:00:00 14 23 Sur 32 Sur 0 -- -- 71
2018-05-18 00:00:00 14.4 8 Sudoeste 13 Sudoeste 0 -- -- 60
2018-05-17 23:00:00 15.7 8 Sur 27 Sur 0 -- -- 53
2018-05-17 22:00:00 16.7 15 Sudeste 41 Sur 0 -- -- 51
2018-05-17 21:00:00 18.2 29 Sur 47 Sur 0 -- -- 48
2018-05-17 20:00:00 20.4 31 Sur 48 Sur 0 -- -- 41
2018-05-17 19:00:00 22.2 31 Sur 46 Sur 0 -- -- 34
2018-05-17 18:00:00 23.4 31 Sur 42 Sur 0 -- -- 34
2018-05-17 17:00:00 25.5 17 Sudoeste 30 Sudoeste 0 -- -- 26
2018-05-17 16:00:00 26.4 11 Oeste 30 Noroeste 0 -- -- 19
2018-05-17 15:00:00 24.8 8 Norte 21 Oeste 0 -- -- 18
2018-05-17 14:00:00 23.6 5 Sudoeste 17 Sudoeste 0 -- -- 21
2018-05-17 13:00:00 22.5 4 Sur 12 Norte 0 -- -- 25
2018-05-17 12:00:00 21.2 6 Norte 13 Norte 0 -- -- 28
2018-05-17 11:00:00 19.8 4 Norte 11 Nordeste 0 -- -- 31
2018-05-17 10:00:00 18 9 Nordeste 19 Nordeste 0 -- -- 37
2018-05-17 09:00:00 16 4 Norte 8 Nordeste 0 -- -- 45
2018-05-17 08:00:00 13 2 Sudeste 10 Sur 0 -- -- 57
2018-05-17 07:00:00 11.2 8 Sur 10 Sudeste 0 -- -- 65
2018-05-17 06:00:00 11.9 6 Sur 12 Sur 0 -- -- 61
2018-05-17 05:00:00 11.8 5 Sudeste 10 Sur 0 -- -- 62
2018-05-17 04:00:00 12.1 3 Sur 7 Sudeste 0 -- -- 60
2018-05-17 03:00:00 12.4 3 Sur 15 Sur 0 -- -- 59
2018-05-17 02:00:00 13 10 Sur 23 Sur 0 -- -- 57
2018-05-17 01:00:00 13.3 17 Sur 26 Sur 0 -- -- 56
2018-05-17 00:00:00 13.9 16 Sur 23 Sur 0 -- -- 56
2018-05-16 23:00:00 14.7 16 Sur 26 Sur 0 -- -- 53
2018-05-16 22:00:00 16.1 21 Sur 30 Sudoeste 0 -- -- 47
2018-05-16 21:00:00 18.7 23 Sur 37 Sudoeste 0 -- -- 42
2018-05-16 20:00:00 20.9 26 Sur 38 Sudoeste 0 -- -- 36
2018-05-16 19:00:00 22.7 27 Sur 37 Sudoeste 0 -- -- 31
2018-05-16 18:00:00 24.3 26 Sur 39 Sudoeste 0 -- -- 30
2018-05-16 17:00:00 25.9 18 Oeste 30 Oeste 0 -- -- 24
2018-05-16 16:00:00 25.7 8 Sudoeste 22 Sur 0 -- -- 27
2018-05-16 15:00:00 24.5 11 Sudoeste 24 Sur 0 -- -- 28
2018-05-16 14:00:00 24.1 13 Sur 26 Sur 0 -- -- 30
2018-05-16 13:00:00 23.2 9 Sudoeste 22 Sur 0 -- -- 33
2018-05-16 12:00:00 22.2 5 Sudoeste 17 Sudeste 0 -- -- 32
2018-05-16 11:00:00 20.4 4 Sur 13 Sur 0 -- -- 34
2018-05-16 10:00:00 19 4 Nordeste 8 Nordeste 0 -- -- 37
2018-05-16 09:00:00 16 3 Norte 9 Este 0 -- -- 44
2018-05-16 08:00:00 13 7 Sudeste 14 Sur 0 -- -- 51
2018-05-16 07:00:00 11.6 12 Sur 15 Sur 0 -- -- 56
2018-05-16 06:00:00 11.8 11 Sur 17 Sur 0 -- -- 54
2018-05-16 05:00:00 12.2 13 Sur 15 Sur 0 -- -- 51
2018-05-16 04:00:00 12.6 10 Sudeste 13 Sur 0 -- -- 50
2018-05-16 03:00:00 13.5 8 Sudeste 15 Sur 0 -- -- 46
2018-05-16 02:00:00 13.8 11 Sur 14 Sur 0 -- -- 46
2018-05-16 01:00:00 14.4 13 Sur 20 Sur 0 -- -- 42
2018-05-16 00:00:00 15.1 14 Sur 22 Sur 0 -- -- 39
2018-05-15 23:00:00 16 16 Sur 24 Sur 0 -- -- 38
2018-05-15 22:00:00 17.5 18 Sur 30 Sur 0 -- -- 33
2018-05-15 21:00:00 20.5 19 Sur 30 Sur 0 -- -- 28
2018-05-15 20:00:00 22.8 23 Sur 32 Sur 0 -- -- 24
2018-05-15 19:00:00 24.3 20 Sur 30 Sudoeste 0 -- -- 22
2018-05-15 18:00:00 25 19 Sur 28 Sudoeste 0 -- -- 21
2018-05-15 17:00:00 25.7 12 Sudoeste 31 Sudoeste 0 -- -- 20
2018-05-15 16:00:00 25.2 5 Sur 19 Oeste 0 -- -- 20
2018-05-15 15:00:00 24.5 10 Noroeste 22 Noroeste 0 -- -- 22
2018-05-15 14:00:00 23.6 3 Noroeste 18 Sudoeste 0 -- -- 24
2018-05-15 13:00:00 23.2 5 Oeste 12 Este 0 -- -- 26
2018-05-15 12:00:00 22 4 Este 10 Noroeste 0 -- -- 26
2018-05-15 11:00:00 20.1 3 Norte 9 Nordeste 0 -- -- 33
2018-05-15 10:00:00 18.5 3 Norte 6 Norte 0 -- -- 36
2018-05-15 09:00:00 16.7 0 Calma 6 Sur 0 -- -- 41
2018-05-15 08:00:00 12.4 7 Sur 13 Sur 0 -- -- 45
2018-05-15 07:00:00 11.5 7 Sur 10 Sur 0 -- -- 47
2018-05-15 06:00:00 11.8 8 Sudeste 10 Sudeste 0 -- -- 50
2018-05-15 05:00:00 13.3 5 Sudeste 8 Sudeste 0 -- -- 52
2018-05-15 04:00:00 14.5 3 Nordeste 8 Nordeste 0 -- -- 47
2018-05-15 03:00:00 14.8 6 Norte 11 Sudeste 0 -- -- 45
2018-05-15 02:00:00 15.7 3 Este 7 Nordeste 0 -- -- 41
2018-05-15 01:00:00 16 3 Sudeste 9 Nordeste 0 -- -- 40
2018-05-15 00:00:00 16.9 5 Este 15 Nordeste 0 -- -- 38
2018-05-14 23:00:00 18.2 6 Nordeste 12 Norte 0 -- -- 34
2018-05-14 22:00:00 19.6 6 Norte 14 Norte 0 -- -- 31
2018-05-14 21:00:00 21.3 9 Norte 24 Norte 0 -- -- 27
2018-05-14 20:00:00 22.4 14 Norte 28 Norte 0 -- -- 24
2018-05-14 19:00:00 23.1 14 Norte 31 Norte 0 -- -- 22
2018-05-14 18:00:00 23.6 14 Noroeste 31 Noroeste 0 -- -- 21
2018-05-14 17:00:00 23.6 17 Norte 31 Noroeste 0 -- -- 20
2018-05-14 16:00:00 23.4 13 Noroeste 24 Norte 0 -- -- 21
2018-05-14 15:00:00 22.8 10 Norte 23 Noroeste 0 -- -- 21
2018-05-14 14:00:00 22.1 10 Norte 20 Norte 0 -- -- 19
2018-05-14 13:00:00 21 4 Noroeste 17 Norte 0 -- -- 21
2018-05-14 12:00:00 19.4 5 Nordeste 11 Norte 0 -- -- 24
2018-05-14 11:00:00 17.3 5 Norte 10 Nordeste 0 -- -- 33
2018-05-14 10:00:00 15.3 0 Calma 10 Nordeste 0 -- -- 39
2018-05-14 09:00:00 12.3 4 Nordeste 9 Nordeste 0 -- -- 50
2018-05-14 08:00:00 10.7 3 Este 8 Sur 0 -- -- 45
2018-05-14 07:00:00 9.1 8 Sur 10 Sur 0 -- -- 50
2018-05-14 06:00:00 10.3 0 Calma 6 Este 0 -- -- 44
2018-05-14 05:00:00 10.9 0 Calma 4 Sur 0 -- -- 39
2018-05-14 04:00:00 11.4 4 Sur 7 Sur 0 -- -- 39
2018-05-14 03:00:00 12.3 4 Noroeste 7 Oeste 0 -- -- 36
2018-05-14 02:00:00 13.3 3 Noroeste 9 Nordeste 0 -- -- 34
2018-05-14 01:00:00 13.8 6 Nordeste 9 Norte 0 -- -- 33
2018-05-11 20:00:00 -- -- -- -- -- -- -- -- --
2018-05-11 19:00:00 -- -- -- -- -- -- -- -- --
2018-05-11 18:00:00 -- -- -- -- -- -- -- -- --
2018-05-11 17:00:00 25 13 Sudoeste 25 Sudoeste 0 -- -- 36
2018-05-11 16:00:00 24 12 Sudoeste 27 Sudoeste 0 -- -- 36
2018-05-11 15:00:00 23.1 12 Oeste 25 Sudoeste 0 -- -- 40
2018-05-11 14:00:00 23 13 Sur 24 Sur 0 -- -- 42
2018-05-11 13:00:00 21.1 6 Noroeste 19 Oeste 0 -- -- 55
2018-05-11 12:00:00 19.6 7 Oeste 15 Oeste 0 -- -- 61
2018-05-11 11:00:00 17.6 4 Noroeste 9 Noroeste 0 -- -- 70
2018-05-11 10:00:00 15.9 3 Norte 6 Nordeste 0 -- -- 75
2018-05-11 09:00:00 13.7 3 Nordeste 5 Nordeste 0 -- -- 84
2018-05-11 08:00:00 11.5 3 Sur 5 Este 0 -- -- 90
2018-05-11 07:00:00 11.1 4 Nordeste 6 Noroeste 0 -- -- 92
2018-05-11 06:00:00 11.3 5 Oeste 8 Oeste 0 -- -- 90
2018-05-11 05:00:00 12.4 0 Calma 3 Norte 0 -- -- 84
2018-05-11 04:00:00 12.5 2 Norte 6 Nordeste 0 -- -- 85
2018-05-11 03:00:00 12.9 5 Nordeste 9 Nordeste 0 -- -- 82
2018-05-11 02:00:00 13.7 4 Nordeste 7 Nordeste 0 -- -- 77
2018-05-11 01:00:00 14.6 2 Nordeste 6 Sudeste 0 -- -- 71
2018-05-11 00:00:00 15 3 Sudoeste 5 Sudoeste 0 -- -- 68
2018-05-10 23:00:00 15.9 0 Calma 21 Oeste 0 -- -- 64
2018-05-10 22:00:00 17.2 12 Oeste 22 Noroeste 0 -- -- 59
2018-05-10 21:00:00 19.6 12 Noroeste 23 Noroeste 0 -- -- 47
2018-05-10 20:00:00 21.4 10 Noroeste 24 Noroeste 0 -- -- 43
2018-05-10 19:00:00 22.2 13 Noroeste 25 Noroeste 0 -- -- 41
2018-05-10 18:00:00 22.4 14 Noroeste 29 Oeste 0 -- -- 42
2018-05-10 17:00:00 21.9 18 Noroeste 27 Noroeste 0 -- -- 48
2018-05-10 16:00:00 21.5 11 Noroeste 22 Oeste 0 -- -- 52
2018-05-10 15:00:00 20.7 8 Noroeste 21 Noroeste 0 -- -- 58
2018-05-10 14:00:00 19 6 Noroeste 17 Oeste 0 -- -- 64
2018-05-10 13:00:00 18.6 7 Norte 14 Noroeste 0 -- -- 66
2018-05-10 12:00:00 16.2 7 Noroeste 14 Noroeste 0 -- -- 75
2018-05-10 11:00:00 15.3 6 Noroeste 13 Noroeste 0 -- -- 80
2018-05-10 10:00:00 14.5 9 Norte 13 Noroeste 0 -- -- 83
2018-05-10 09:00:00 13.8 5 Norte 8 Norte 0 -- -- 86
2018-05-10 08:00:00 13.5 0 Calma 7 Norte 0 -- -- 87
2018-05-10 07:00:00 13.6 0 Calma 8 Oeste 0 -- -- 85
2018-05-10 06:00:00 13.8 5 Oeste 11 Oeste 0 -- -- 84
2018-05-10 05:00:00 14.2 4 Norte 5 Norte 0 -- -- 87
2018-05-10 04:00:00 14.1 0 Calma 8 Sudoeste 0 -- -- 85
2018-05-10 03:00:00 14.1 6 Oeste 14 Oeste 0 -- -- 84
2018-05-10 02:00:00 14.4 10 Oeste 22 Oeste 0 -- -- 83
2018-05-10 01:00:00 15.2 11 Sudoeste 19 Sudoeste 0 -- -- 81
2018-05-10 00:00:00 15.8 8 Oeste 21 Oeste 0 -- -- 83
2018-05-09 23:00:00 16 6 Oeste 13 Oeste 0 -- -- 83
2018-05-09 22:00:00 16.3 8 Oeste 18 Oeste 0 -- -- 83
2018-05-09 21:00:00 16.7 8 Oeste 18 Oeste 0 -- -- 82
2018-05-09 20:00:00 17 6 Noroeste 20 Oeste 0 -- -- 82
2018-05-09 19:00:00 17.8 12 Oeste 24 Oeste 0 -- -- 78
2018-05-09 18:00:00 18.4 16 Oeste 26 Noroeste 0 -- -- 76
2018-05-09 17:00:00 18.6 14 Noroeste 25 Noroeste 0 -- -- 74
2018-05-09 16:00:00 18.9 12 Noroeste 24 Noroeste 0 -- -- 71
2018-05-09 15:00:00 19 9 Noroeste 22 Oeste 0 -- -- 70
2018-05-09 14:00:00 17.8 7 Oeste 15 Noroeste 0 -- -- 74
2018-05-09 13:00:00 15.6 3 Sur 9 Sur 0 -- -- 84
2018-05-09 12:00:00 14.5 6 Noroeste 11 Noroeste 0 -- -- 87
2018-05-09 11:00:00 13.7 7 Noroeste 19 Norte 0 -- -- 95
2018-05-09 10:00:00 13.7 9 Noroeste 18 Norte 0 -- -- 92
2018-05-09 09:00:00 13.6 8 Noroeste 17 Norte 0 -- -- 93
2018-05-09 08:00:00 13.8 9 Norte 13 Noroeste 0 -- -- 91
2018-05-09 07:00:00 14.5 3 Noroeste 9 Noroeste 0 -- -- 86
2018-05-09 06:00:00 14.7 5 Norte 10 Noroeste 0 -- -- 84
2018-05-09 05:00:00 15.1 5 Norte 11 Norte 0 -- -- 82
2018-05-09 04:00:00 15.6 2 Este 5 Este 0 -- -- 80
2018-05-09 03:00:00 16 6 Noroeste 13 Noroeste 0 -- -- 80
2018-05-09 02:00:00 16.5 2 Oeste 7 Norte 0 -- -- 78
2018-05-09 01:00:00 17.1 6 Norte 7 Norte 0 -- -- 76
2018-05-09 00:00:00 17.8 3 Sur 6 Sur 0 -- -- 71
2018-05-08 23:00:00 18.4 3 Oeste 18 Noroeste 0 -- -- 68
2018-05-08 22:00:00 19.3 13 Noroeste 27 Noroeste 0 -- -- 65
2018-05-08 21:00:00 20.8 14 Noroeste 35 Noroeste 0 -- -- 50
2018-05-08 20:00:00 22.1 19 Noroeste 37 Norte 0 -- -- 47
2018-05-08 19:00:00 22.2 18 Noroeste 28 Noroeste 0 -- -- 48
2018-05-08 18:00:00 24.2 18 Noroeste 31 Noroeste 0 -- -- 37
2018-05-08 17:00:00 25.3 13 Noroeste 27 Oeste 0 -- -- 37
2018-05-08 16:00:00 23.8 14 Noroeste 27 Oeste 0 -- -- 42
2018-05-08 15:00:00 23.3 15 Oeste 23 Oeste 0 -- -- 42
2018-05-08 14:00:00 22.2 13 Noroeste 24 Noroeste 0 -- -- 44
2018-05-08 13:00:00 21.2 8 Noroeste 21 Norte 0 -- -- 45
2018-05-08 12:00:00 19.8 9 Noroeste 17 Noroeste 0 -- -- 51
2018-05-08 11:00:00 18.9 7 Noroeste 13 Oeste 0 -- -- 54
2018-05-08 10:00:00 17.7 4 Nordeste 8 Nordeste 0 -- -- 59
2018-05-08 09:00:00 16 2 Norte 9 Este 0 -- -- 67
2018-05-08 08:00:00 13.8 8 Este 10 Este 0 -- -- 75
2018-05-08 07:00:00 13.4 6 Este 7 Este 0 -- -- 79
2018-05-08 06:00:00 12.8 7 Este 8 Este 0 -- -- 85
2018-05-08 05:00:00 13.5 5 Sur 8 Sur 0 -- -- 76
2018-05-08 04:00:00 14.1 6 Sudeste 10 Sudeste 0 -- -- 73
2018-05-08 03:00:00 14.1 4 Sudeste 10 Sur 0 -- -- 72
2018-05-08 02:00:00 14.3 8 Sur 14 Sudoeste 0 -- -- 68
2018-05-08 01:00:00 15.1 5 Sur 21 Sudoeste 0 -- -- 64
2018-05-08 00:00:00 15.9 17 Sur 22 Sudoeste 0 -- -- 62
2018-05-07 23:00:00 17 10 Sudoeste 22 Sur 0 -- -- 55
2018-05-07 22:00:00 17.3 19 Sur 28 Sur 0 -- -- 52
2018-05-07 21:00:00 19.2 20 Sur 33 Sur 0 -- -- 46
2018-05-07 20:00:00 22.5 16 Sudoeste 28 Sur 0 -- -- 37
2018-05-07 19:00:00 24.1 15 Sudoeste 26 Sudoeste 0 -- -- 31
2018-05-07 18:00:00 25 12 Oeste 24 Oeste 0 -- -- 30
2018-05-07 17:00:00 24.9 13 Oeste 27 Oeste 0 -- -- 29
2018-05-07 16:00:00 23.9 10 Sudoeste 25 Oeste 0 -- -- 33
2018-05-07 15:00:00 23.3 8 Sudoeste 18 Sudoeste 0 -- -- 37
2018-05-07 14:00:00 22.8 9 Oeste 19 Sudoeste 0 -- -- 37
2018-05-07 13:00:00 21.2 8 Oeste 16 Oeste 0 -- -- 43
2018-05-07 12:00:00 20 8 Sudeste 21 Sudoeste 0 -- -- 52
2018-05-07 11:00:00 18.6 11 Sur 21 Sudoeste 0 -- -- 61
2018-05-07 10:00:00 16.9 14 Sur 24 Sur 0 -- -- 68
2018-05-07 09:00:00 14.5 5 Sudeste 13 Sur 0 -- -- 81
2018-05-07 08:00:00 11.8 10 Sur 13 Sur 0 -- -- 91
2018-05-07 07:00:00 12.2 2 Sudeste 7 Nordeste 0 -- -- 91
2018-05-07 06:00:00 12.7 4 Nordeste 7 Nordeste 0 -- -- 89
2018-05-07 05:00:00 12.8 4 Este 8 Este 0 -- -- 90
2018-05-07 04:00:00 13 5 Sur 8 Sur 0 -- -- 86
2018-05-07 03:00:00 13.5 4 Nordeste 7 Nordeste 0 -- -- 82
2018-05-07 02:00:00 13.6 5 Sur 7 Nordeste 0 -- -- 77
2018-05-07 01:00:00 14 4 Sur 14 Sur 0 -- -- 75
2018-05-07 00:00:00 14.5 7 Sur 14 Sur 0 -- -- 74
2018-05-06 23:00:00 15.2 11 Sur 16 Sudoeste 0 -- -- 69
2018-05-06 22:00:00 17.2 4 Sudoeste 10 Sur 0 -- -- 60
2018-05-06 21:00:00 18.8 3 Noroeste 12 Nordeste 0 -- -- 51
2018-05-06 20:00:00 19.7 6 Nordeste 25 Nordeste 0 -- -- 49
2018-05-06 19:00:00 19.9 18 Nordeste 32 Nordeste 0 -- -- 46
2018-05-06 18:00:00 23.4 6 Sur 27 Sur 0 -- -- 39
2018-05-06 17:00:00 23.5 19 Sur 32 Sur 0 -- -- 39
2018-05-06 16:00:00 23.2 15 Sur 29 Sur 0 -- -- 38
2018-05-06 15:00:00 22.7 19 Sur 31 Sur 0 -- -- 41
2018-05-06 14:00:00 22.5 15 Sur 26 Sur 0 -- -- 40
2018-05-06 13:00:00 21.5 3 Sudeste 14 Sudeste 0 -- -- 40
2018-05-06 12:00:00 20.9 6 Sudeste 15 Este 0 -- -- 43
2018-05-06 11:00:00 18.6 5 Nordeste 13 Este 0 -- -- 52
2018-05-06 10:00:00 17.6 6 Este 17 Este 0 -- -- 57
2018-05-06 09:00:00 14.2 2 Sudoeste 5 Sudoeste 0 -- -- 68
2018-05-06 08:00:00 13.5 2 Sur 6 Nordeste 0 -- -- 67
2018-05-06 07:00:00 13.9 3 Sur 14 Sudeste 0 -- -- 65
2018-05-06 06:00:00 13 5 Sur 13 Sur 0 -- -- 70
2018-05-06 05:00:00 14 0 Calma 19 Sudeste 0 -- -- 67
2018-05-06 04:00:00 13.8 9 Sudeste 13 Sudeste 0 -- -- 70
2018-05-06 03:00:00 14.4 9 Sudeste 14 Sur 0 -- -- 68
2018-05-06 02:00:00 14.6 9 Sudeste 18 Sur 0 -- -- 65
2018-05-06 01:00:00 15.5 10 Sur 16 Sur 0 -- -- 62
2018-05-06 00:00:00 16.1 3 Sur 8 Sur 0 -- -- 60
2018-05-05 23:00:00 16.3 6 Sur 14 Este 0 -- -- 60
2018-05-05 22:00:00 17.9 4 Este 21 Sur 0 -- -- 55
2018-05-05 21:00:00 19.2 17 Sur 24 Sur 0 -- -- 50
2018-05-05 20:00:00 21.1 17 Sur 24 Sur 0 -- -- 44
2018-05-05 19:00:00 22.6 12 Sudoeste 22 Sudoeste 0 -- -- 40
2018-05-05 18:00:00 22.8 15 Sudoeste 26 Sudoeste 0 -- -- 41
2018-05-05 17:00:00 22.1 14 Sur 19 Sur 0 -- -- 40
2018-05-05 16:00:00 21.6 11 Oeste 22 Oeste 0 -- -- 41
2018-05-05 15:00:00 21.4 5 Norte 18 Sudoeste 0 -- -- 35
2018-05-05 14:00:00 22.1 8 Sur 17 Sur 0 -- -- 38
2018-05-05 13:00:00 20.9 9 Sur 18 Sudeste 0 -- -- 43
2018-05-05 12:00:00 19.2 5 Sudoeste 12 Sudeste 0 -- -- 46
2018-05-05 11:00:00 17.3 4 Sudoeste 6 Sur 0 -- -- 54
2018-05-05 10:00:00 14.8 3 Norte 6 Nordeste 0 -- -- 68
2018-05-05 09:00:00 12.7 2 Este 9 Nordeste 0 -- -- 77
2018-05-05 08:00:00 10.1 6 Nordeste 9 Este 0 -- -- 90
2018-05-05 07:00:00 9.9 4 Nordeste 7 Nordeste 0 -- -- 89
2018-05-05 06:00:00 -- -- -- -- -- -- -- -- --
2018-05-05 05:00:00 10.7 3 Sudeste 9 Nordeste 0 -- -- 80
2018-05-05 04:00:00 11.7 3 Este 8 Este 0 -- -- 73
2018-05-05 03:00:00 12.6 4 Este 9 Este 0 -- -- 67
2018-05-05 02:00:00 12.6 6 Este 9 Este 0 -- -- 68
2018-05-05 01:00:00 13 4 Este 10 Noroeste 0 -- -- 68
2018-05-05 00:00:00 13.7 7 Noroeste 10 Noroeste 0 -- -- 66
2018-05-04 23:00:00 14.4 3 Sur 12 Sur 0 -- -- 65
2018-05-04 22:00:00 15.2 10 Sur 14 Sur 0 -- -- 62
2018-05-04 21:00:00 17.9 8 Sur 11 Sur 0 -- -- 49
2018-05-04 20:00:00 19.8 0 Calma 12 Este 0 -- -- 36
2018-05-04 19:00:00 20.1 4 Nordeste 21 Sur 0 -- -- 34
2018-05-04 18:00:00 19 12 Sudeste 35 Sur 0 -- -- 41
2018-05-04 17:00:00 18 25 Sudeste 39 Sudeste 0 -- -- 46
2018-05-04 16:00:00 19.7 27 Sur 40 Sur 0 -- -- 40
2018-05-04 15:00:00 17.9 25 Sur 39 Sur 0 -- -- 45
2018-05-04 14:00:00 20.4 13 Noroeste 21 Noroeste 0 -- -- 39
2018-05-04 13:00:00 19.7 10 Noroeste 19 Oeste 0 -- -- 48
2018-05-04 12:00:00 18.7 4 Norte 11 Oeste 0 -- -- 51
2018-05-04 11:00:00 16.8 4 Noroeste 10 Sudoeste 0 -- -- 60
2018-05-04 10:00:00 15.1 5 Oeste 8 Oeste 0 -- -- 67
2018-05-04 09:00:00 13.9 3 Sur 6 Sur 0 -- -- 73
2018-05-04 08:00:00 12.1 0 Calma 4 Norte 0 -- -- 78
2018-05-04 07:00:00 12.3 2 Noroeste 11 Norte 0 -- -- 78
2018-05-04 06:00:00 12.4 5 Norte 13 Norte 0 -- -- 79
2018-05-04 05:00:00 12.6 7 Nordeste 14 Nordeste 0 -- -- 82
2018-05-04 04:00:00 13.1 5 Nordeste 6 Nordeste 0 -- -- 77
2018-05-04 03:00:00 14.2 3 Este 6 Este 0 -- -- 68
2018-05-04 02:00:00 14.8 2 Este 5 Oeste 0 -- -- 66
2018-05-04 01:00:00 15 2 Oeste 16 Sudoeste 0 -- -- 62
2018-05-04 00:00:00 15.2 5 Sudoeste 16 Sudoeste 0 -- -- 59
2018-05-03 23:00:00 15.9 7 Nordeste 18 Noroeste 0 -- -- 54
2018-05-03 22:00:00 17.1 8 Noroeste 17 Noroeste 0 -- -- 43
2018-05-03 21:00:00 18.3 11 Noroeste 22 Noroeste 0 -- -- 40
2018-05-03 20:00:00 20.8 13 Noroeste 27 Noroeste 0 -- -- 32
2018-05-03 19:00:00 21.5 14 Noroeste 25 Oeste 0 -- -- 31
2018-05-03 18:00:00 21.5 14 Noroeste 32 Noroeste 0 -- -- 32
2018-05-03 17:00:00 21.1 15 Noroeste 26 Noroeste 0 -- -- 33
2018-05-03 16:00:00 20.5 13 Oeste 23 Noroeste 0 -- -- 34
2018-05-03 15:00:00 19.5 12 Oeste 24 Noroeste 0 -- -- 37
2018-05-03 14:00:00 18.2 14 Noroeste 23 Noroeste 0 -- -- 39
2018-05-03 13:00:00 16.7 8 Oeste 19 Noroeste 0 -- -- 45
2018-05-03 12:00:00 15.2 8 Noroeste 13 Noroeste 0 -- -- 50
2018-05-03 11:00:00 13.5 6 Noroeste 11 Oeste 0 -- -- 53
2018-05-03 10:00:00 12.8 2 Nordeste 5 Nordeste 0 -- -- 61
2018-05-03 09:00:00 11.1 0 Calma 5 Sudeste 0 -- -- 67
2018-05-03 08:00:00 8.1 5 Sudeste 6 Sudeste 0 -- -- 71
2018-05-03 07:00:00 7.8 3 Sur 6 Nordeste 0 -- -- 68
2018-05-03 06:00:00 8.5 3 Este 5 Sudeste 0 -- -- 68
2018-05-03 05:00:00 8.6 4 Sudeste 7 Sur 0 -- -- 65
2018-05-03 04:00:00 8.7 5 Sudeste 8 Sudeste 0 -- -- 66
2018-05-03 03:00:00 9.6 4 Este 12 Nordeste 0 -- -- 60
2018-05-03 02:00:00 9.3 9 Nordeste 13 Nordeste 0 -- -- 65
2018-05-03 01:00:00 10.3 5 Norte 13 Norte 0 -- -- 57
2018-05-03 00:00:00 11 6 Noroeste 19 Sudoeste 0 -- -- 55
2018-05-02 23:00:00 11.9 13 Oeste 18 Oeste 0 -- -- 53
2018-05-02 22:00:00 13.4 10 Oeste 15 Oeste 0 -- -- 45
2018-05-02 21:00:00 15.1 9 Noroeste 20 Noroeste 0 -- -- 41
2018-05-02 20:00:00 17.1 13 Noroeste 24 Noroeste 0 -- -- 34
2018-05-02 19:00:00 16.6 13 Noroeste 26 Noroeste 0 -- -- 36
2018-05-02 18:00:00 17.7 8 Noroeste 23 Norte 0 -- -- 33
2018-05-02 17:00:00 17.5 11 Noroeste 24 Noroeste 0 -- -- 34
2018-05-02 16:00:00 16.9 10 Oeste 22 Noroeste 0 -- -- 37
2018-05-02 15:00:00 16.1 10 Norte 22 Oeste 0 -- -- 36
2018-05-02 14:00:00 15.5 10 Noroeste 20 Noroeste 0 -- -- 53
2018-05-02 13:00:00 14.4 4 Noroeste 13 Oeste 0 -- -- 60
2018-05-02 12:00:00 13.2 5 Nordeste 10 Nordeste 0 -- -- 65
2018-05-02 11:00:00 11.5 4 Nordeste 9 Nordeste 0 -- -- 77
2018-05-02 10:00:00 9.5 5 Nordeste 11 Este 0 -- -- 86
2018-05-02 09:00:00 7.2 8 Nordeste 11 Nordeste 0 -- -- 92
2018-05-02 08:00:00 5.4 0 Calma 9 Este 0 -- -- 93
2018-05-02 07:00:00 5.4 8 Nordeste 9 Nordeste 0 -- -- 92
2018-05-02 06:00:00 5.9 6 Este 10 Este 0 -- -- 92
2018-05-02 05:00:00 5.8 6 Sudeste 10 Sudeste 0 -- -- 93
2018-05-02 04:00:00 5.9 9 Sudeste 11 Sur 0 -- -- 92
2018-05-02 03:00:00 6.1 8 Sudeste 12 Sudeste 0 -- -- 91
2018-05-02 02:00:00 7.1 4 Nordeste 8 Nordeste 0 -- -- 89
2018-05-02 01:00:00 7 6 Nordeste 9 Norte 0 -- -- 91
2018-05-02 00:00:00 7.6 0 Calma 9 Oeste 0 -- -- 85
2018-05-01 23:00:00 8.3 2 Norte 4 Nordeste 0 -- -- 82
2018-05-01 22:00:00 8.4 2 Noroeste 9 Noroeste 0 -- -- 84
2018-05-01 21:00:00 9.7 6 Norte 12 Noroeste 0 -- -- 82
2018-05-01 20:00:00 10.5 4 Norte 14 Oeste 0 -- -- 80
2018-05-01 19:00:00 10.3 9 Noroeste 18 Oeste 0.2 -- -- 81
2018-05-01 18:00:00 8.9 4 Oeste 15 Este 0 -- -- 88
2018-05-01 17:00:00 6.7 9 Este 38 Norte 2 -- -- 96
2018-05-01 16:00:00 4.7 24 Norte 46 Norte 9.8 -- -- 94
2018-05-01 15:00:00 5.5 15 Sudeste 22 Este 7.2 -- -- 89
2018-05-01 14:00:00 8.5 14 Norte 24 Noroeste 1.8 -- -- 69
2018-05-01 13:00:00 10.2 8 Oeste -- -- 1.4 -- -- 62
2018-05-01 12:00:00 13.2 4 Oeste 12 Sudoeste 0 -- -- 53
2018-05-01 11:00:00 11.6 5 Sudeste 10 Sur 0 -- -- 63
2018-05-01 10:00:00 10.3 5 Sur 9 Sur 0 -- -- 74
2018-05-01 09:00:00 8.8 7 Sur 11 Sudeste 0 -- -- 86
2018-05-01 08:00:00 7.7 5 Sudeste 8 Sudeste 0 -- -- 89
2018-05-01 07:00:00 7.3 0 Calma 7 Sudeste 0 -- -- 88
2018-05-01 06:00:00 7.4 3 Este 8 Sudeste 0 -- -- 85
2018-05-01 05:00:00 7.6 5 Sudeste 7 Sudeste 0 -- -- 83
2018-05-01 04:00:00 7.8 5 Este 8 Nordeste 0 -- -- 81
2018-05-01 03:00:00 8.2 4 Este 8 Este 0 -- -- 78
2018-05-01 02:00:00 8.8 3 Este 7 Nordeste 0 -- -- 69
2018-05-01 01:00:00 9.3 2 Norte 8 Este 0 -- -- 63
2018-05-01 00:00:00 9.1 4 Noroeste 14 Oeste 0 -- -- 62
2018-04-30 23:00:00 10.1 10 Oeste 17 Oeste 0 -- -- 57
2018-04-30 22:00:00 11 11 Oeste 22 Oeste 0 -- -- 54
2018-04-30 21:00:00 12.5 11 Oeste 27 Oeste 0 -- -- 47
2018-04-30 20:00:00 14.1 16 Oeste 27 Oeste 0 -- -- 41
2018-04-30 19:00:00 14.9 10 Noroeste 26 Oeste 0 -- -- 36
2018-04-30 18:00:00 15 10 Noroeste 30 Oeste 0 -- -- 36
2018-04-30 17:00:00 15.1 17 Noroeste 29 Noroeste 0 -- -- 37
2018-04-30 16:00:00 15 15 Noroeste 29 Oeste 0 -- -- 35
2018-04-30 15:00:00 15.4 14 Noroeste 33 Oeste 0 -- -- 35
2018-04-30 14:00:00 13.8 15 Oeste 26 Oeste 0 -- -- 37
2018-04-30 13:00:00 13.6 13 Oeste 26 Oeste 0 -- -- 40
2018-04-30 12:00:00 12.1 10 Oeste 19 Oeste 0 -- -- 45
2018-04-30 11:00:00 11.3 9 Noroeste 19 Oeste 0 -- -- 52
2018-04-30 10:00:00 9.9 4 Sudoeste 10 Sudoeste 0 -- -- 62
2018-04-30 09:00:00 8.2 4 Sur 7 Sur 0 -- -- 80
2018-04-30 08:00:00 7.2 3 Sudoeste 7 Sudoeste 0 -- -- 84
2018-04-30 07:00:00 7.3 3 Sur 11 Oeste 0 -- -- 82
2018-04-30 06:00:00 8.1 8 Sudoeste 14 Oeste 0 -- -- 82
2018-04-30 05:00:00 8.2 8 Sudoeste 13 Sudoeste 0 -- -- 86
2018-04-30 04:00:00 8.4 9 Sur 16 Sudoeste 0 -- -- 85
2018-04-30 03:00:00 8.6 9 Sudoeste 15 Sudoeste 0 -- -- 84
2018-04-30 02:00:00 9.3 8 Sudoeste 13 Oeste 0 -- -- 80
2018-04-30 01:00:00 8.9 6 Sudoeste 14 Sudoeste 0 -- -- 78
2018-04-30 00:00:00 9.1 9 Sudoeste 20 Sudoeste 0 -- -- 74
2018-04-29 23:00:00 9.9 10 Sudoeste 15 Sudoeste 0 -- -- 66
2018-04-29 22:00:00 10.5 6 Sudoeste 30 Oeste 0 -- -- 64
2018-04-29 21:00:00 11.9 22 Oeste 37 Oeste 0 -- -- 56
2018-04-29 20:00:00 13.6 21 Oeste 35 Oeste 0 -- -- 46
2018-04-29 19:00:00 14.7 20 Oeste 40 Oeste 0 -- -- 41
2018-04-29 18:00:00 15.5 23 Oeste 44 Sudoeste 0 -- -- 36
2018-04-29 17:00:00 15.8 22 Oeste 42 Oeste 0 -- -- 35
2018-04-29 16:00:00 15.6 33 Oeste 47 Oeste 0 -- -- 34
2018-04-29 15:00:00 14.2 30 Sudoeste 49 Sudoeste 0 -- -- 42
2018-04-29 14:00:00 14.2 29 Oeste 45 Sudoeste 0 -- -- 43
2018-04-29 13:00:00 13 27 Oeste 43 Sudoeste 0 -- -- 46
2018-04-29 12:00:00 10.7 22 Oeste 36 Oeste 0 -- -- 59
2018-04-29 11:00:00 10.4 25 Oeste 38 Oeste 0 -- -- 62
2018-04-29 10:00:00 8.9 22 Oeste 32 Sudoeste 0 -- -- 73
2018-04-29 09:00:00 7.9 19 Sudoeste 30 Sudoeste 0 -- -- 78
2018-04-29 08:00:00 7.1 18 Sudoeste 30 Sudoeste 0 -- -- 83
2018-04-29 07:00:00 7.8 18 Oeste 33 Oeste 0 -- -- 83
2018-04-29 06:00:00 7.9 19 Oeste 32 Oeste 0 -- -- 85
2018-04-29 05:00:00 7.6 12 Sudoeste 22 Sudoeste 0 -- -- 87
2018-04-29 04:00:00 7.9 13 Sudoeste 24 Oeste 0 -- -- 87
2018-04-29 03:00:00 8.1 14 Sudoeste 25 Sudoeste 0.6 -- -- 88
2018-04-29 02:00:00 8.8 14 Sudoeste 29 Sudoeste 0 -- -- 83
2018-04-29 01:00:00 10.1 15 Sudoeste 30 Sudoeste 0 -- -- 63
2018-04-29 00:00:00 10.4 12 Sudoeste 31 Sudoeste 0 -- -- 59
2018-04-28 23:00:00 10.8 16 Sudoeste 35 Sudoeste 0 -- -- 54
2018-04-28 22:00:00 11.7 14 Sudoeste 37 Sudoeste 0 -- -- 49
2018-04-28 21:00:00 13.2 26 Oeste 39 Sudoeste 0 -- -- 41
2018-04-28 20:00:00 16 21 Oeste 35 Oeste 0 -- -- 32
2018-04-28 19:00:00 16.3 24 Oeste 39 Oeste 0 -- -- 36
2018-04-28 18:00:00 18.1 23 Oeste 37 Oeste 0 -- -- 35
2018-04-28 17:00:00 17.5 18 Oeste 39 Oeste 0 -- -- 36
2018-04-28 16:00:00 17.4 19 Oeste 36 Oeste 0 -- -- 40
2018-04-28 15:00:00 18.4 21 Oeste 37 Noroeste 0 -- -- 42
2018-04-28 14:00:00 17.5 20 Oeste 32 Oeste 0 -- -- 52
2018-04-28 13:00:00 17.6 11 Sudoeste 28 Sudoeste 0 -- -- 54
2018-04-28 12:00:00 17.3 13 Oeste 25 Oeste 0 -- -- 53
2018-04-28 11:00:00 16.6 6 Oeste 14 Oeste 0 -- -- 63
2018-04-28 10:00:00 15.7 4 Norte 6 Noroeste 0 -- -- 69
2018-04-28 09:00:00 13.5 2 Nordeste 6 Este 0 -- -- 80
2018-04-28 08:00:00 11.4 2 Nordeste 12 Sudeste 0 -- -- 82
2018-04-28 07:00:00 11 9 Sur 14 Sur 0 -- -- 82
2018-04-28 06:00:00 11.3 11 Sur 14 Sur 0 -- -- 79
2018-04-28 05:00:00 11.8 10 Sur 14 Sur 0 -- -- 77
2018-04-28 04:00:00 12.1 12 Sur 14 Sur 0 -- -- 76
2018-04-28 03:00:00 13 9 Sur 16 Sur 0 -- -- 72
2018-04-28 02:00:00 13.1 12 Sur 14 Sur 0 -- -- 75
2018-04-28 01:00:00 13.5 9 Sur 14 Sur 0 -- -- 73
2018-04-28 00:00:00 14.8 9 Sur 14 Sudoeste 0 -- -- 64